createdAt,value
2023-04-15T09:39:19.216Z,5.20
2023-04-15T09:41:46.198Z,9.70
2023-04-15T09:44:25.947Z,9.90
2023-04-15T09:46:52.730Z,9.80
2023-04-15T09:49:20.800Z,10.00
2023-04-15T09:51:57.964Z,10.10
2023-04-15T09:54:36.235Z,9.80
2023-04-15T09:57:07.693Z,9.70
2023-04-15T09:59:34.524Z,9.80
2023-04-15T10:02:04.270Z,9.70
2023-04-15T10:04:32.886Z,9.60
2023-04-15T10:07:00.587Z,9.50
2023-04-15T10:09:27.515Z,9.50
2023-04-15T10:11:54.643Z,9.50
2023-04-15T10:14:21.871Z,9.60
2023-04-15T10:16:49.721Z,9.60
2023-04-15T10:19:21.213Z,9.50
2023-04-15T10:21:50.055Z,9.40
2023-04-15T10:24:17.484Z,9.40
2023-04-15T10:26:44.962Z,9.50
2023-04-15T10:29:11.854Z,9.60
2023-04-15T10:31:39.087Z,9.80
2023-04-15T10:34:06.720Z,9.90
2023-04-15T10:36:33.878Z,9.80
2023-04-15T10:39:00.576Z,9.90
2023-04-15T10:41:33.338Z,9.90
2023-04-15T10:44:01.548Z,9.90
2023-04-15T10:46:37.826Z,9.80
2023-04-15T10:49:16.305Z,9.80
2023-04-15T10:51:50.938Z,9.90
2023-04-15T10:54:36.093Z,10.00
2023-04-15T10:57:06.403Z,10.10
2023-04-15T10:59:38.581Z,10.00
2023-04-15T11:02:08.983Z,9.90
2023-04-15T11:04:58.391Z,10.00
2023-04-15T11:07:44.739Z,10.00
2023-04-15T11:10:17.284Z,10.10
2023-04-15T11:23:13.998Z,10.20
2023-04-15T11:25:43.528Z,9.90
2023-04-15T11:28:11.899Z,9.60
2023-04-15T11:30:39.405Z,9.60
2023-04-15T11:33:08.565Z,9.50
2023-04-15T11:35:35.966Z,9.40
2023-04-15T11:38:08.537Z,9.30
2023-04-15T11:40:36.105Z,9.30
2023-04-15T11:43:20.220Z,9.20
2023-04-15T11:45:57.909Z,9.20
2023-04-15T11:48:26.723Z,9.20
2023-04-15T11:51:04.934Z,9.20
2023-04-15T11:53:50.430Z,9.20
2023-04-15T11:56:19.197Z,9.20
2023-04-15T11:58:46.547Z,9.20
2023-04-15T12:01:14.004Z,9.20
2023-04-15T12:03:43.448Z,9.10
2023-04-15T12:06:24.525Z,9.10
2023-04-15T12:08:52.760Z,9.10
2023-04-15T12:11:40.978Z,9.10
2023-04-15T12:14:29.886Z,9.20
2023-04-15T12:17:01.487Z,9.20
2023-04-15T12:19:39.088Z,9.40
2023-04-15T12:22:10.016Z,9.50
2023-04-15T12:24:37.676Z,9.50
2023-04-15T12:27:08.288Z,9.50
2023-04-15T12:29:37.300Z,9.60
2023-04-15T12:32:09.686Z,9.70
2023-04-15T12:34:44.891Z,9.70
2023-04-15T12:37:13.715Z,9.80
2023-04-15T12:39:42.695Z,9.90
2023-04-15T12:42:10.717Z,9.80
2023-04-15T12:44:39.970Z,9.80
2023-04-15T12:47:07.657Z,9.80
2023-04-15T12:49:34.610Z,9.80
2023-04-15T12:52:02.673Z,9.70
2023-04-15T12:54:30.556Z,9.70
2023-04-15T12:56:58.349Z,9.60
2023-04-15T12:59:25.251Z,9.70
2023-04-15T13:01:53.517Z,9.70
2023-04-15T13:04:21.090Z,9.60
2023-04-15T13:06:47.942Z,9.50
2023-04-15T13:09:15.751Z,9.40
2023-04-15T13:11:42.680Z,9.50
2023-04-15T13:14:11.523Z,9.50
2023-04-15T13:16:38.828Z,9.50
2023-04-15T13:19:05.554Z,9.40
2023-04-15T13:21:35.250Z,9.50
2023-04-15T13:24:03.157Z,9.50
2023-04-15T13:26:31.189Z,9.40
2023-04-15T13:28:57.790Z,9.30
2023-04-15T13:31:24.473Z,9.40
2023-04-15T13:33:51.084Z,9.40
2023-04-15T13:36:17.765Z,9.40
2023-04-15T13:38:44.441Z,9.20
2023-04-15T13:41:11.149Z,9.20
2023-04-15T17:12:59.211Z,9.10
2023-04-15T17:15:27.078Z,6.20
2023-04-15T17:17:54.096Z,6.10
2023-04-15T17:22:48.592Z,5.90
2023-04-15T17:25:15.588Z,5.90
2023-04-15T17:27:42.387Z,5.90
2023-04-15T17:30:09.583Z,5.90
2023-04-15T17:32:36.602Z,5.80
2023-04-15T17:35:06.983Z,5.70
2023-04-15T17:37:34.449Z,5.70
2023-04-15T17:40:01.440Z,5.70
2023-04-15T17:42:28.133Z,5.80
2023-04-15T17:44:54.735Z,5.80
2023-04-15T17:47:21.415Z,5.90
2023-04-15T17:49:48.116Z,5.90
2023-04-15T17:52:14.902Z,5.90
2023-04-15T17:54:41.588Z,5.90
2023-04-15T17:57:09.518Z,5.80
2023-04-15T17:59:36.209Z,5.70
2023-04-15T18:02:02.966Z,5.70
2023-04-15T18:04:30.104Z,5.70
2023-04-15T18:06:56.855Z,5.70
2023-04-15T18:09:23.560Z,5.70
2023-04-15T18:11:50.433Z,5.70
2023-04-15T18:14:30.731Z,5.70
2023-04-15T18:17:01.398Z,5.60
2023-04-15T18:19:28.232Z,5.60
2023-04-15T18:21:54.940Z,5.60
2023-04-15T18:24:22.465Z,5.60
2023-04-15T18:26:49.459Z,5.60
2023-04-15T18:29:16.554Z,5.60
2023-04-15T18:31:43.388Z,5.50
2023-04-15T18:34:10.077Z,5.50
2023-04-15T18:36:36.718Z,5.50
2023-04-15T18:39:04.198Z,5.50
2023-04-15T18:41:31.133Z,5.60
2023-04-15T18:43:57.776Z,5.50
2023-04-15T22:31:08.382Z,5.60
2023-04-15T22:33:35.087Z,4.90
2023-04-15T22:36:01.836Z,4.90
2023-04-15T22:38:28.466Z,4.80
2023-04-15T22:40:55.078Z,4.90
2023-04-15T22:43:22.569Z,4.90
2023-04-15T22:45:50.794Z,4.80
2023-04-15T22:48:18.240Z,4.70
2023-04-15T22:50:45.008Z,4.70
2023-04-15T22:53:11.692Z,4.70
2023-04-15T22:55:38.342Z,4.70
2023-04-15T22:58:04.983Z,4.70
2023-04-15T23:00:31.574Z,4.80
2023-04-15T23:02:58.406Z,4.80
2023-04-15T23:05:25.169Z,4.80
2023-04-15T23:07:51.797Z,4.70
2023-04-15T23:10:18.397Z,4.70
2023-04-15T23:12:45.025Z,4.70
2023-04-15T23:15:11.818Z,4.70
2023-04-15T23:17:38.627Z,4.70
2023-04-15T23:20:06.346Z,4.60
2023-04-15T23:22:37.291Z,4.60
2023-04-15T23:25:05.509Z,4.60
2023-04-15T23:27:32.135Z,4.70
2023-04-15T23:29:58.765Z,4.60
2023-04-15T23:32:25.426Z,4.60
2023-04-15T23:34:52.190Z,4.50
2023-04-15T23:37:19.038Z,4.50
2023-04-15T23:39:45.682Z,4.50
2023-04-15T23:42:12.367Z,4.50
2023-04-15T23:44:38.994Z,4.50
2023-04-15T23:47:05.717Z,4.50
2023-04-15T23:49:32.378Z,4.50
2023-04-15T23:51:59.077Z,4.50
2023-04-15T23:54:25.677Z,4.50
2023-04-15T23:56:52.350Z,4.50
2023-04-15T23:59:18.916Z,4.60
